createdAt,value
2018-05-13T00:02:51.869Z,68.53
2018-05-13T00:05:57.125Z,68.21
2018-05-13T00:09:02.753Z,68.69
2018-05-13T00:12:07.715Z,68.43
2018-05-13T00:15:13.227Z,68.54
2018-05-13T00:18:19.344Z,68.45
2018-05-13T00:21:25.963Z,68.34
2018-05-13T00:24:32.122Z,68.56
2018-05-13T00:30:43.082Z,68.67
2018-05-13T00:33:48.317Z,69.18
2018-05-13T00:36:53.754Z,68.89
2018-05-13T00:40:00.858Z,69.25
2018-05-13T00:43:06.885Z,69.59
2018-05-13T00:46:12.125Z,69.39
2018-05-13T00:49:19.025Z,69.18
2018-05-13T00:52:24.870Z,69.07
2018-05-13T00:55:30.810Z,69.12
2018-05-13T00:58:36.809Z,69.36
2018-05-13T01:01:41.700Z,69.33
2018-05-13T01:04:47.555Z,68.99
2018-05-13T01:07:53.217Z,69.04
2018-05-13T01:10:58.902Z,69.26
2018-05-13T01:14:03.893Z,69.19
2018-05-13T01:17:09.121Z,69.09
2018-05-13T01:20:15.253Z,69.26
2018-05-13T01:23:22.325Z,69.45
2018-05-13T01:26:28.649Z,69.44
2018-05-13T01:29:34.587Z,69.60
2018-05-13T01:32:41.425Z,69.73
2018-05-13T01:35:47.297Z,69.54
2018-05-13T01:38:52.550Z,69.63
2018-05-13T01:41:58.882Z,69.85
2018-05-13T01:45:04.538Z,69.91
2018-05-13T01:48:09.526Z,69.71
2018-05-13T01:51:15.405Z,70.15
2018-05-13T01:54:21.262Z,69.91
2018-05-13T01:57:27.425Z,69.75
2018-05-13T02:00:33.572Z,69.63
2018-05-13T02:03:40.354Z,69.41
2018-05-13T02:06:46.210Z,69.53
2018-05-13T02:09:53.338Z,69.53
2018-05-13T02:13:00.380Z,69.64
2018-05-13T02:16:06.517Z,69.59
2018-05-13T02:19:12.360Z,69.67
2018-05-13T02:22:19.201Z,69.68
2018-05-13T02:25:26.241Z,69.85
2018-05-13T02:28:32.427Z,69.98
2018-05-13T02:31:38.533Z,69.76
2018-05-13T02:34:44.760Z,69.73
2018-05-13T02:37:51.597Z,69.86
2018-05-13T02:40:57.729Z,69.90
2018-05-13T02:44:03.163Z,69.99
2018-05-13T02:47:08.573Z,69.81
2018-05-13T02:50:13.801Z,70.32
2018-05-13T02:53:19.852Z,70.55
2018-05-13T02:56:25.562Z,70.64
2018-05-13T02:59:30.817Z,70.68
2018-05-13T03:02:36.490Z,70.78
2018-05-13T03:05:43.439Z,71.03
2018-05-13T03:08:49.577Z,71.19
2018-05-13T03:11:54.795Z,71.20
2018-05-13T03:15:00.047Z,70.89
2018-05-13T03:18:05.415Z,71.23
2018-05-13T03:21:11.594Z,71.51
2018-05-13T03:24:17.759Z,71.57
2018-05-13T03:27:23.995Z,71.28
2018-05-13T03:30:29.874Z,71.47
2018-05-13T03:33:35.812Z,71.46
2018-05-13T03:36:41.953Z,71.98
2018-05-13T03:39:49.015Z,72.12
2018-05-13T03:42:56.241Z,71.41
2018-05-13T03:46:03.339Z,71.49
2018-05-13T03:49:09.490Z,71.33
2018-05-13T03:52:15.669Z,71.65
2018-05-13T03:55:22.433Z,71.66
2018-05-13T03:58:28.589Z,71.57
2018-05-13T04:01:33.812Z,71.63
2018-05-13T04:04:39.070Z,72.10
2018-05-13T04:11:46.442Z,72.26
2018-05-13T04:15:02.403Z,71.64
2018-05-13T04:18:08.246Z,71.64
2018-05-13T04:21:15.415Z,72.37
2018-05-13T04:24:22.146Z,71.74
2018-05-13T04:27:29.189Z,72.21
2018-05-13T04:30:35.325Z,72.05
2018-05-13T04:33:41.580Z,72.18
2018-05-13T04:36:47.620Z,72.72
2018-05-13T04:39:53.472Z,72.54
2018-05-13T04:42:59.661Z,72.69
2018-05-13T04:46:04.862Z,72.40
2018-05-13T04:49:10.086Z,72.56
2018-05-13T04:52:16.258Z,72.65
2018-05-13T04:55:22.822Z,73.02
2018-05-13T04:58:29.078Z,73.03
2018-05-13T05:01:35.421Z,73.36
2018-05-13T05:04:41.562Z,73.37
2018-05-13T05:07:48.612Z,73.42
2018-05-13T05:10:54.758Z,73.43
2018-05-13T05:14:00.108Z,74.01
2018-05-13T05:17:05.348Z,73.64
2018-05-13T05:20:11.596Z,74.10
2018-05-13T05:23:17.762Z,73.60
2018-05-13T05:26:23.900Z,73.61
2018-05-13T05:29:30.458Z,73.90
2018-05-13T05:32:36.622Z,73.03
2018-05-13T05:35:42.814Z,73.27
2018-05-13T05:38:49.948Z,73.79
2018-05-13T05:41:56.977Z,74.02
2018-05-13T05:45:02.666Z,73.47
2018-05-13T05:48:07.895Z,73.94
2018-05-13T05:51:14.055Z,73.68
2018-05-13T05:54:20.234Z,73.51
2018-05-13T05:57:25.482Z,73.68
2018-05-13T06:00:31.633Z,74.04
2018-05-13T06:03:36.857Z,74.24
2018-05-13T06:06:42.098Z,73.47
2018-05-13T06:09:47.325Z,73.79
2018-05-13T06:12:52.548Z,73.62
2018-05-13T06:16:00.565Z,73.28
2018-05-13T06:19:05.958Z,73.67
2018-05-13T06:22:12.113Z,73.53
2018-05-13T06:25:17.871Z,72.92
2018-05-13T06:28:23.222Z,73.44
2018-05-13T06:31:29.557Z,73.67
2018-05-13T06:34:36.710Z,74.04
2018-05-13T06:37:43.437Z,74.01
2018-05-13T06:40:49.606Z,74.35
2018-05-13T06:43:54.845Z,74.71
2018-05-13T06:47:01.002Z,74.09
2018-05-13T06:50:07.150Z,74.03
2018-05-13T06:53:13.483Z,74.26
2018-05-13T06:56:18.434Z,73.69
2018-05-13T06:59:23.710Z,74.45
2018-05-13T07:02:28.929Z,74.64
2018-05-13T07:05:33.889Z,74.12
2018-05-13T07:08:39.105Z,73.76
2018-05-13T07:11:44.341Z,74.29
2018-05-13T07:14:49.582Z,73.96
2018-05-13T07:17:54.843Z,74.13
2018-05-13T07:21:00.089Z,74.13
2018-05-13T07:24:06.090Z,74.86
2018-05-13T07:27:11.923Z,74.83
2018-05-13T07:30:17.571Z,73.63
2018-05-13T07:33:24.602Z,73.59
2018-05-13T07:36:31.655Z,73.58
2018-05-13T07:39:38.838Z,73.44
2018-05-13T07:42:44.404Z,73.18
2018-05-13T07:45:50.592Z,73.27
2018-05-13T07:48:56.724Z,73.53
2018-05-13T07:52:02.860Z,73.46
2018-05-13T07:55:08.087Z,73.59
2018-05-13T07:58:13.305Z,73.26
2018-05-13T08:01:18.549Z,73.26
2018-05-13T08:04:23.748Z,72.93
2018-05-13T08:07:28.997Z,74.20
2018-05-13T08:10:34.256Z,72.78
2018-05-13T08:13:40.122Z,73.81
2018-05-13T08:16:45.342Z,73.02
2018-05-13T08:19:50.562Z,73.69
2018-05-13T08:22:56.414Z,73.08
2018-05-13T08:26:03.496Z,73.52
2018-05-13T08:29:09.638Z,72.56
2018-05-13T08:32:15.582Z,72.92
2018-05-13T08:35:21.727Z,73.33
2018-05-13T08:38:27.882Z,72.93
2018-05-13T08:41:34.541Z,72.67
2018-05-13T08:44:40.418Z,73.22
2018-05-13T08:47:46.578Z,73.16
2018-05-13T08:50:51.810Z,72.89
2018-05-13T08:53:57.086Z,73.60
2018-05-13T08:57:02.473Z,73.24
2018-05-13T09:00:09.525Z,73.50
2018-05-13T09:03:15.653Z,73.17
2018-05-13T09:06:20.877Z,73.37
2018-05-13T09:09:26.102Z,73.14
2018-05-13T09:12:32.193Z,73.01
2018-05-13T09:15:38.229Z,72.67
2018-05-13T09:18:45.290Z,72.79
2018-05-13T09:21:52.019Z,72.71
2018-05-13T09:24:57.670Z,73.06
2018-05-13T09:28:03.608Z,72.48
2018-05-13T09:31:08.839Z,72.72
2018-05-13T09:34:14.977Z,72.48
2018-05-13T09:37:22.017Z,72.14
2018-05-13T09:40:28.078Z,72.10
2018-05-13T09:43:34.210Z,71.90
2018-05-13T09:46:41.286Z,71.67
2018-05-13T09:49:47.356Z,71.45
2018-05-13T09:52:53.509Z,71.11
2018-05-13T09:55:59.672Z,71.45
2018-05-13T09:59:05.812Z,71.17
2018-05-13T10:02:12.769Z,70.72
2018-05-13T10:05:18.646Z,70.28
2018-05-13T10:08:23.861Z,70.65
2018-05-13T10:11:29.085Z,70.03
2018-05-13T10:14:34.308Z,70.46
2018-05-13T10:17:40.461Z,70.28
2018-05-13T10:20:45.690Z,70.21
2018-05-13T10:23:50.687Z,69.97
2018-05-13T10:26:56.739Z,69.69
2018-05-13T10:30:02.177Z,69.72
2018-05-13T10:33:08.514Z,69.51
2018-05-13T10:36:14.634Z,69.92
2018-05-13T10:39:20.852Z,69.74
2018-05-13T10:42:26.823Z,69.60
2018-05-13T10:45:32.041Z,69.50
2018-05-13T10:48:39.261Z,69.20
2018-05-13T10:51:46.108Z,69.63
2018-05-13T10:54:52.291Z,69.27
2018-05-13T10:57:58.457Z,69.63
2018-05-13T11:01:03.471Z,69.93
2018-05-13T11:04:08.415Z,69.42
2018-05-13T11:07:14.042Z,69.48
2018-05-13T11:10:19.983Z,69.30
2018-05-13T11:13:26.151Z,69.36
2018-05-13T11:16:31.149Z,69.82
2018-05-13T11:19:36.370Z,69.42
2018-05-13T11:22:43.564Z,69.85
2018-05-13T11:25:49.893Z,69.23
2018-05-13T11:28:56.446Z,69.29
2018-05-13T11:32:02.650Z,69.38
2018-05-13T11:35:07.911Z,69.48
2018-05-13T11:38:14.036Z,69.38
2018-05-13T11:41:19.258Z,69.12
2018-05-13T11:44:24.485Z,69.14
2018-05-13T11:47:29.746Z,69.33
2018-05-13T11:50:35.868Z,69.46
2018-05-13T11:53:41.521Z,69.11
2018-05-13T11:56:47.691Z,69.14
2018-05-13T11:59:52.933Z,69.16
2018-05-13T12:02:59.075Z,69.26
2018-05-13T12:06:05.915Z,68.92
2018-05-13T12:09:12.050Z,68.92
2018-05-13T12:12:17.925Z,68.63
2018-05-13T12:15:23.574Z,68.66
2018-05-13T12:18:28.800Z,68.69
2018-05-13T12:21:34.030Z,68.76
2018-05-13T12:24:39.260Z,68.73
2018-05-13T12:27:45.413Z,68.52
2018-05-13T12:30:51.551Z,68.29
2018-05-13T12:33:56.789Z,68.40
2018-05-13T12:37:02.020Z,68.27
2018-05-13T12:40:07.247Z,68.11
2018-05-13T12:43:12.499Z,68.06
2018-05-13T12:46:17.726Z,67.85
2018-05-13T12:49:24.155Z,67.53
2018-05-13T12:52:29.998Z,67.48
2018-05-13T12:55:35.230Z,67.40
2018-05-13T12:58:41.081Z,67.35
2018-05-13T13:01:46.026Z,67.20
2018-05-13T13:04:51.765Z,67.20
2018-05-13T13:07:58.002Z,67.10
2018-05-13T13:11:04.164Z,67.07
2018-05-13T13:14:09.118Z,66.86
2018-05-13T13:17:14.358Z,66.61
2018-05-13T13:20:21.342Z,66.41
2018-05-13T13:23:27.473Z,66.42
2018-05-13T13:26:33.649Z,66.38
2018-05-13T13:29:40.630Z,66.35
2018-05-13T13:32:47.371Z,65.79
2018-05-13T13:35:52.367Z,64.98
2018-05-13T13:38:57.585Z,65.34
2018-05-13T13:42:02.529Z,65.47
2018-05-13T13:45:07.178Z,65.56
2018-05-13T13:48:13.081Z,65.08
2018-05-13T13:51:18.730Z,64.97
2018-05-13T13:54:25.783Z,64.95
2018-05-13T13:57:33.835Z,64.44
2018-05-13T14:00:39.659Z,64.55
2018-05-13T14:03:44.884Z,64.33
2018-05-13T14:06:51.056Z,64.45
2018-05-13T14:09:58.201Z,64.29
2018-05-13T14:13:03.759Z,64.03
2018-05-13T14:16:09.029Z,64.15
2018-05-13T14:19:14.272Z,64.25
2018-05-13T14:22:19.494Z,64.04
2018-05-13T14:25:25.338Z,63.91
2018-05-13T14:28:31.461Z,63.62
2018-05-13T14:31:37.707Z,63.56
2018-05-13T14:34:44.509Z,63.61
2018-05-13T14:37:49.726Z,63.64
2018-05-13T14:40:56.722Z,63.19
2018-05-13T14:44:02.895Z,63.55
2018-05-13T14:47:08.727Z,63.63
2018-05-13T14:50:13.973Z,63.66
2018-05-13T14:53:18.953Z,63.44
2018-05-13T14:56:24.160Z,63.16
2018-05-13T14:59:29.785Z,62.46
2018-05-13T15:02:35.929Z,62.26
2018-05-13T15:05:41.957Z,62.03
2018-05-13T15:08:47.491Z,61.71
2018-05-13T15:11:53.596Z,61.91
2018-05-13T15:14:59.736Z,61.94
2018-05-13T15:18:05.138Z,61.71
2018-05-13T15:21:11.245Z,61.92
2018-05-13T15:24:17.378Z,62.07
2018-05-13T15:27:22.608Z,61.28
2018-05-13T15:30:28.778Z,61.38
2018-05-13T15:33:35.048Z,61.69
2018-05-13T15:36:40.688Z,61.58
2018-05-13T15:39:45.904Z,61.19
2018-05-13T15:42:51.297Z,60.89
2018-05-13T15:45:56.525Z,60.87
2018-05-13T15:49:01.789Z,60.43
2018-05-13T15:52:07.110Z,60.66
2018-05-13T15:55:12.388Z,60.62
2018-05-13T15:58:17.453Z,60.39
2018-05-13T16:01:23.993Z,60.82
2018-05-13T16:04:30.129Z,60.58
2018-05-13T16:07:37.162Z,60.69
2018-05-13T16:13:51.163Z,60.39
2018-05-13T16:16:57.274Z,60.28
2018-05-13T16:20:03.215Z,59.96
2018-05-13T16:23:09.142Z,59.91
2018-05-13T16:26:15.983Z,58.78
2018-05-13T16:29:22.118Z,59.52
2018-05-13T16:32:28.272Z,59.48
2018-05-13T16:35:35.143Z,60.05
2018-05-13T16:38:40.893Z,59.97
2018-05-13T16:41:45.865Z,60.09
2018-05-13T16:44:51.939Z,59.96
2018-05-13T16:47:57.571Z,59.24
2018-05-13T16:51:03.977Z,59.14
2018-05-13T16:54:09.308Z,58.57
2018-05-13T16:57:14.243Z,58.87
2018-05-13T17:00:19.460Z,58.48
2018-05-13T17:03:24.669Z,57.85
2018-05-13T17:06:29.886Z,57.93
2018-05-13T17:09:34.825Z,57.00
2018-05-13T17:12:40.246Z,57.73
2018-05-13T17:15:45.185Z,57.75
2018-05-13T17:18:50.646Z,57.33
2018-05-13T17:21:56.498Z,57.21
2018-05-13T17:25:02.355Z,57.25
2018-05-13T17:28:07.793Z,57.72
2018-05-13T17:31:13.641Z,57.20
2018-05-13T17:34:19.761Z,57.49
2018-05-13T17:37:25.568Z,57.00
2018-05-13T17:40:31.797Z,56.73
2018-05-13T17:43:37.656Z,57.02
2018-05-13T17:46:43.263Z,56.79
2018-05-13T17:49:50.184Z,57.20
2018-05-13T17:52:55.797Z,56.97
2018-05-13T17:56:01.651Z,56.70
2018-05-13T17:59:07.335Z,57.22
2018-05-13T18:02:12.561Z,56.97
2018-05-13T18:05:17.497Z,56.70
2018-05-13T18:08:22.470Z,56.88
2018-05-13T18:11:27.925Z,56.99
2018-05-13T18:14:33.864Z,57.17
2018-05-13T18:17:38.772Z,57.25
2018-05-13T18:20:45.344Z,57.05
2018-05-13T18:23:51.480Z,56.71
2018-05-13T18:26:58.464Z,57.10
2018-05-13T18:30:03.409Z,57.51
2018-05-13T18:33:08.340Z,57.96
2018-05-13T18:36:13.833Z,57.80
2018-05-13T18:39:18.825Z,57.84
2018-05-13T18:42:23.919Z,58.16
2018-05-13T18:45:29.783Z,58.26
2018-05-13T18:48:35.173Z,57.74
2018-05-13T18:51:40.159Z,57.14
2018-05-13T18:54:45.125Z,57.59
2018-05-13T18:57:51.003Z,58.15
2018-05-13T19:00:56.444Z,57.42
2018-05-13T19:04:01.504Z,57.39
2018-05-13T19:07:06.460Z,57.15
2018-05-13T19:10:12.343Z,57.65
2018-05-13T19:13:17.614Z,56.84
2018-05-13T19:16:24.412Z,56.47
2018-05-13T19:19:29.494Z,56.53
2018-05-13T19:22:34.991Z,56.62
2018-05-13T19:25:40.897Z,57.25
2018-05-13T19:28:45.855Z,57.36
2018-05-13T19:31:51.813Z,57.26
2018-05-13T19:34:57.693Z,57.17
2018-05-13T19:38:03.657Z,57.18
2018-05-13T19:41:08.634Z,57.78
2018-05-13T19:44:14.521Z,58.13
2018-05-13T19:47:20.432Z,57.92
2018-05-13T19:50:26.334Z,58.14
2018-05-13T19:53:32.177Z,58.04
2018-05-13T19:56:37.701Z,58.43
2018-05-13T19:59:43.525Z,58.39
2018-05-13T20:02:49.595Z,58.45
2018-05-13T20:05:55.449Z,58.43
2018-05-13T20:09:01.180Z,58.46
2018-05-13T20:12:06.302Z,58.59
2018-05-13T20:15:11.234Z,58.72
2018-05-13T20:18:16.906Z,59.27
2018-05-13T20:21:22.046Z,59.14
2018-05-13T20:24:26.976Z,59.13
2018-05-13T20:27:32.827Z,59.18
2018-05-13T20:30:39.421Z,59.29
2018-05-13T20:33:45.280Z,59.69
2018-05-13T20:36:50.209Z,59.32
2018-05-13T20:39:55.235Z,59.29
2018-05-13T20:43:00.232Z,59.74
2018-05-13T20:46:06.165Z,59.76
2018-05-13T20:49:11.761Z,59.60
2018-05-13T20:52:17.635Z,59.96
2018-05-13T20:55:23.493Z,59.79
2018-05-13T20:58:29.358Z,59.82
2018-05-13T21:01:35.217Z,60.12
2018-05-13T21:04:40.453Z,59.77
2018-05-13T21:07:46.292Z,59.86
2018-05-13T21:10:51.317Z,60.07
2018-05-13T21:13:56.714Z,60.23
2018-05-13T21:17:02.606Z,60.56
2018-05-13T21:20:08.042Z,60.17
2018-05-13T21:23:12.991Z,60.01
2018-05-13T21:26:18.822Z,60.28
2018-05-13T21:29:24.677Z,60.38
2018-05-13T21:32:29.603Z,60.08
2018-05-13T21:35:34.542Z,60.36
2018-05-13T21:38:39.473Z,60.62
2018-05-13T21:41:45.320Z,60.76
2018-05-13T21:44:50.753Z,60.64
2018-05-13T21:47:55.998Z,60.64
2018-05-13T21:51:02.801Z,60.73
2018-05-13T21:54:08.659Z,60.80
2018-05-13T21:57:14.543Z,61.07
2018-05-13T22:00:19.733Z,61.14
2018-05-13T22:03:25.530Z,61.25
2018-05-13T22:06:31.394Z,61.23
2018-05-13T22:09:37.239Z,61.31
2018-05-13T22:12:43.112Z,61.39
2018-05-13T22:15:48.839Z,61.34
2018-05-13T22:18:54.018Z,61.52
2018-05-13T22:21:58.966Z,61.57
2018-05-13T22:25:04.418Z,61.72
2018-05-13T22:28:10.305Z,61.94
2018-05-13T22:31:15.266Z,61.63
2018-05-13T22:34:21.663Z,62.09
2018-05-13T22:37:28.489Z,62.09
2018-05-13T22:40:34.366Z,62.25
2018-05-13T22:43:40.227Z,62.28
2018-05-13T22:46:45.214Z,62.02
2018-05-13T22:49:51.100Z,62.36
2018-05-13T22:52:57.863Z,62.74
2018-05-13T22:56:04.381Z,63.01
2018-05-13T22:59:09.318Z,62.63
2018-05-13T23:02:15.163Z,62.44
2018-05-13T23:05:20.398Z,62.80
2018-05-13T23:08:26.635Z,63.05
2018-05-13T23:11:31.879Z,62.76
2018-05-13T23:14:37.081Z,63.01
2018-05-13T23:17:42.315Z,63.08
2018-05-13T23:20:47.565Z,63.42
2018-05-13T23:23:53.676Z,63.68
2018-05-13T23:26:59.386Z,63.56
2018-05-13T23:30:05.316Z,63.46
2018-05-13T23:33:11.253Z,63.91
2018-05-13T23:36:18.002Z,64.06
2018-05-13T23:39:23.631Z,64.08
2018-05-13T23:42:29.574Z,64.00
2018-05-13T23:45:34.781Z,63.95
2018-05-13T23:48:39.993Z,64.04
2018-05-13T23:51:47.137Z,64.29
2018-05-13T23:54:54.279Z,64.08
2018-05-13T23:58:00.109Z,64.10
